createdAt,value
2018-11-14T08:27:49.253Z,9.08
2018-11-14T08:28:49.062Z,9.05
2018-11-14T08:29:49.200Z,9.10
2018-11-14T08:30:49.083Z,9.10
2018-11-14T08:31:49.096Z,9.10
2018-11-14T08:32:49.154Z,9.20
2018-11-14T08:33:49.128Z,9.20
2018-11-14T08:34:49.125Z,9.18
2018-11-14T08:35:49.137Z,9.26
2018-11-14T08:36:49.155Z,9.24
2018-11-14T08:37:49.176Z,9.29
2018-11-14T08:38:49.167Z,9.32
2018-11-14T08:39:49.184Z,9.39
2018-11-14T08:40:49.190Z,9.38
2018-11-14T08:41:49.210Z,9.42
2018-11-14T08:42:49.211Z,9.38
2018-11-14T08:43:49.236Z,9.40
2018-11-14T08:44:49.233Z,9.42
2018-11-14T08:45:49.259Z,9.54
2018-11-14T08:46:49.255Z,9.50
2018-11-14T08:47:49.280Z,9.50
2018-11-14T08:48:49.283Z,9.51
2018-11-14T08:49:49.301Z,9.56
2018-11-14T08:50:49.301Z,9.53
2018-11-14T08:51:49.309Z,9.56
2018-11-14T08:52:49.322Z,9.57
2018-11-14T08:53:50.453Z,9.61
2018-11-14T08:54:49.353Z,9.58
2018-11-14T08:55:49.353Z,9.56
2018-11-14T08:56:49.368Z,9.69
2018-11-14T08:57:49.393Z,9.68
2018-11-14T08:58:49.386Z,9.74
2018-11-14T08:59:49.395Z,9.75
2018-11-14T09:00:49.410Z,9.75
2018-11-14T09:01:49.416Z,9.76
2018-11-14T09:02:49.427Z,9.75
2018-11-14T09:03:49.478Z,9.81
2018-11-14T09:04:49.753Z,9.76
2018-11-14T09:05:49.462Z,9.94
2018-11-14T09:06:49.480Z,9.83
2018-11-14T09:07:49.627Z,9.91
2018-11-14T09:08:50.540Z,9.90
2018-11-14T09:09:49.506Z,9.91
2018-11-14T09:10:49.522Z,9.91
2018-11-14T09:11:49.528Z,9.91
2018-11-14T09:12:49.609Z,9.94
2018-11-14T09:13:49.548Z,10.05
2018-11-14T09:14:49.570Z,10.01
2018-11-14T09:15:49.583Z,10.02
2018-11-14T09:16:49.584Z,10.09
2018-11-14T09:17:49.615Z,10.09
2018-11-14T09:18:49.734Z,10.11
2018-11-14T09:19:49.617Z,10.17
2018-11-14T09:20:49.627Z,10.17
2018-11-14T09:21:49.639Z,10.12
2018-11-14T09:22:50.097Z,10.15
2018-11-14T09:23:49.768Z,10.25
2018-11-14T09:24:49.689Z,10.25
2018-11-14T09:25:49.684Z,10.26
2018-11-14T09:26:49.696Z,10.30
2018-11-14T09:27:49.708Z,10.25
2018-11-14T09:29:51.253Z,10.40
2018-11-14T09:30:49.739Z,10.48
2018-11-14T09:31:49.752Z,10.44
2018-11-14T09:32:49.792Z,10.45
2018-11-14T09:33:49.775Z,10.53
2018-11-14T09:34:49.794Z,10.60
2018-11-14T09:35:49.799Z,10.60
2018-11-14T09:36:49.809Z,10.45
2018-11-14T09:37:49.818Z,10.63
2018-11-14T09:38:49.832Z,10.61
2018-11-14T09:39:49.848Z,10.67
2018-11-14T09:40:49.886Z,10.68
2018-11-14T09:41:49.866Z,10.79
2018-11-14T09:42:49.876Z,10.73
2018-11-14T09:43:49.936Z,10.67
2018-11-14T09:44:49.897Z,10.78
2018-11-14T09:45:49.932Z,10.79
2018-11-14T09:46:49.932Z,10.86
2018-11-14T09:47:49.962Z,10.81
2018-11-14T09:48:49.944Z,10.92
2018-11-14T09:49:50.040Z,10.96
2018-11-14T09:50:49.965Z,10.97
2018-11-14T09:51:49.974Z,10.94
2018-11-14T09:52:49.986Z,10.96
2018-11-14T09:53:49.997Z,11.03
2018-11-14T09:54:50.008Z,11.07
2018-11-14T09:55:50.021Z,11.03
2018-11-14T09:56:51.653Z,11.07
2018-11-14T09:57:50.946Z,11.07
2018-11-14T09:58:50.108Z,11.17
2018-11-14T09:59:50.071Z,11.14
2018-11-14T10:00:50.082Z,11.21
2018-11-14T10:01:50.111Z,11.19
2018-11-14T10:02:50.115Z,11.27
2018-11-14T10:03:50.114Z,11.32
2018-11-14T10:04:50.127Z,11.28
2018-11-14T10:05:50.153Z,11.32
2018-11-14T10:06:50.162Z,11.35
2018-11-14T10:07:50.214Z,11.36
2018-11-14T10:08:50.216Z,11.39
2018-11-14T10:09:50.184Z,11.43
2018-11-14T10:10:50.231Z,11.46
2018-11-14T10:11:50.206Z,11.46
2018-11-14T10:12:50.222Z,11.46
2018-11-14T10:13:50.234Z,11.47
2018-11-14T10:14:50.258Z,11.55
2018-11-14T10:15:50.293Z,11.61
2018-11-14T10:16:50.265Z,11.57
2018-11-14T10:17:50.275Z,11.57
2018-11-14T10:18:50.296Z,11.64
2018-11-14T10:19:50.313Z,11.73
2018-11-14T10:20:50.310Z,11.70
2018-11-14T10:21:50.324Z,11.78
2018-11-14T10:22:50.339Z,11.86
2018-11-14T10:23:50.348Z,11.79
2018-11-14T10:24:50.631Z,11.90
2018-11-14T10:25:50.376Z,11.86
2018-11-14T10:26:50.383Z,11.83
2018-11-14T10:27:50.396Z,12.01
2018-11-14T10:28:50.422Z,11.96
2018-11-14T10:29:50.428Z,11.95
2018-11-14T10:30:50.485Z,12.04
2018-11-14T10:31:50.443Z,12.02
2018-11-14T10:32:50.454Z,12.01
2018-11-14T10:33:50.467Z,12.05
2018-11-14T10:34:50.479Z,12.01
2018-11-14T10:35:50.490Z,12.12
2018-11-14T10:36:50.505Z,12.09
2018-11-14T10:37:50.521Z,12.05
2018-11-14T10:38:50.523Z,12.17
2018-11-14T10:39:50.545Z,12.19
2018-11-14T10:40:50.555Z,12.23
2018-11-14T10:41:50.561Z,12.27
2018-11-14T10:42:50.592Z,12.32
2018-11-14T10:43:50.593Z,12.29
2018-11-14T10:44:50.598Z,12.29
2018-11-14T10:45:50.606Z,12.35
2018-11-14T10:46:50.620Z,12.35
2018-11-14T10:47:50.631Z,12.41
2018-11-14T10:48:50.640Z,12.41
2018-11-14T10:49:50.666Z,12.38
2018-11-14T10:50:50.725Z,12.46
2018-11-14T10:51:50.679Z,12.47
2018-11-14T10:52:50.699Z,12.49
2018-11-14T10:53:50.945Z,12.56
2018-11-14T10:54:50.716Z,12.64
2018-11-14T10:55:50.727Z,12.59
2018-11-14T10:56:50.742Z,12.64
2018-11-14T10:57:50.750Z,12.67
2018-11-14T10:58:50.764Z,12.74
2018-11-14T10:59:50.784Z,12.78
2018-11-14T11:00:50.801Z,12.78
2018-11-14T11:01:50.802Z,12.78
2018-11-14T11:02:50.823Z,12.86
2018-11-14T11:03:50.823Z,12.86
2018-11-14T11:04:50.866Z,12.86
2018-11-14T11:05:50.890Z,13.00
2018-11-14T11:06:50.860Z,12.90
2018-11-14T11:07:50.911Z,12.90
2018-11-14T11:08:50.888Z,13.01
2018-11-14T11:09:50.902Z,12.93
2018-11-14T11:10:50.907Z,13.08
2018-11-14T11:11:50.923Z,13.04
2018-11-14T11:12:50.939Z,12.97
2018-11-14T11:13:50.953Z,12.96
2018-11-14T11:14:50.959Z,13.04
2018-11-14T11:15:50.970Z,13.07
2018-11-14T11:16:50.988Z,13.14
2018-11-14T11:17:50.994Z,13.08
2018-11-14T11:18:51.005Z,13.15
2018-11-14T11:19:51.022Z,13.19
2018-11-14T11:20:51.031Z,13.25
2018-11-14T11:21:51.043Z,13.25
2018-11-14T11:22:51.055Z,13.22
2018-11-14T11:23:51.073Z,13.19
2018-11-14T11:24:51.525Z,13.20
2018-11-14T11:25:51.090Z,13.20
2018-11-14T11:26:51.110Z,13.26
2018-11-14T11:27:51.117Z,13.28
2018-11-14T11:28:51.130Z,13.23
2018-11-14T11:29:51.143Z,13.29
2018-11-14T11:30:51.291Z,13.38
2018-11-14T11:31:51.190Z,13.32
2018-11-14T11:32:51.197Z,13.38
2018-11-14T11:33:51.190Z,13.42
2018-11-14T11:34:51.202Z,13.38
2018-11-14T11:35:51.224Z,13.45
2018-11-14T11:36:51.231Z,13.51
2018-11-14T11:37:51.243Z,13.52
2018-11-14T11:38:51.255Z,13.48
2018-11-14T11:39:51.266Z,13.48
2018-11-14T11:40:51.278Z,13.46
2018-11-14T11:41:51.290Z,13.52
2018-11-14T11:42:51.302Z,13.45
2018-11-14T11:43:51.317Z,13.55
2018-11-14T11:44:51.329Z,13.52
2018-11-14T11:45:51.347Z,13.48
2018-11-14T11:46:51.360Z,13.44
2018-11-14T11:47:51.367Z,13.49
2018-11-14T11:48:51.377Z,13.49
2018-11-14T11:49:51.402Z,13.51
2018-11-14T11:50:51.479Z,13.45
2018-11-14T11:51:51.418Z,13.45
2018-11-14T11:52:51.431Z,13.52
2018-11-14T11:53:51.440Z,13.60
2018-11-14T11:54:51.452Z,13.51
2018-11-14T11:55:51.467Z,13.60
2018-11-14T11:56:51.476Z,13.69
2018-11-14T11:57:51.491Z,13.63
2018-11-14T11:58:51.505Z,13.60
2018-11-14T11:59:51.564Z,13.66
2018-11-14T12:00:51.620Z,13.70
2018-11-14T12:02:51.555Z,13.66
2018-11-14T12:03:51.567Z,13.66
2018-11-14T12:04:51.577Z,13.71
2018-11-14T12:05:51.627Z,13.70
2018-11-14T12:06:51.609Z,13.66
2018-11-14T12:07:51.609Z,13.71
2018-11-14T12:08:51.625Z,13.69
2018-11-14T12:09:51.635Z,13.77
2018-11-14T12:10:51.751Z,13.81
2018-11-14T12:11:51.664Z,13.75
2018-11-14T12:12:51.712Z,13.73
2018-11-14T12:13:51.739Z,13.71
2018-11-14T12:14:51.699Z,13.79
2018-11-14T12:15:51.709Z,13.75
2018-11-14T12:16:51.725Z,13.73
2018-11-14T12:17:51.773Z,13.78
2018-11-14T12:18:51.751Z,13.75
2018-11-14T12:19:51.758Z,13.79
2018-11-14T12:20:51.772Z,13.78
2018-11-14T12:21:51.784Z,13.79
2018-11-14T12:22:51.798Z,13.71
2018-11-14T12:23:51.818Z,13.71
2018-11-14T12:24:51.823Z,13.70
2018-11-14T12:25:51.834Z,13.67
2018-11-14T12:26:51.848Z,13.66
2018-11-14T12:28:51.872Z,13.57
2018-11-14T12:29:52.080Z,13.70
2018-11-14T12:30:52.036Z,13.55
2018-11-14T12:31:51.917Z,13.63
2018-11-14T12:32:51.921Z,13.57
2018-11-14T12:33:51.937Z,13.64
2018-11-14T12:34:52.110Z,13.59
2018-11-14T12:35:51.961Z,13.59
2018-11-14T12:36:51.973Z,13.62
2018-11-14T12:37:51.986Z,13.57
2018-11-14T12:38:52.028Z,13.59
2018-11-14T12:39:52.048Z,13.73
2018-11-14T12:40:52.027Z,13.73
2018-11-14T12:41:52.062Z,13.64
2018-11-14T12:42:52.049Z,13.59
2018-11-14T12:43:52.569Z,13.54
2018-11-14T12:44:52.078Z,13.63
2018-11-14T12:45:52.087Z,13.62
2018-11-14T12:46:52.103Z,13.66
2018-11-14T12:47:52.113Z,13.73
2018-11-14T12:48:52.126Z,13.67
2018-11-14T12:49:52.134Z,13.71
2018-11-14T12:50:52.147Z,13.66
2018-11-14T12:51:52.159Z,13.55
2018-11-14T12:52:52.182Z,13.63
2018-11-14T12:53:52.192Z,13.63
2018-11-14T12:54:52.197Z,13.60
2018-11-14T12:55:52.210Z,13.63
2018-11-14T12:56:52.221Z,13.62
2018-11-14T12:57:52.237Z,13.64
2018-11-14T12:58:52.246Z,13.60
2018-11-14T12:59:53.471Z,13.59
2018-11-14T13:00:52.271Z,13.62
2018-11-14T13:01:52.283Z,13.62
2018-11-14T13:02:52.955Z,13.60
2018-11-14T13:03:52.350Z,13.60
2018-11-14T13:04:52.324Z,13.59
2018-11-14T13:05:52.335Z,13.66
2018-11-14T13:06:52.347Z,13.62
2018-11-14T13:07:52.364Z,13.64
2018-11-14T13:08:52.393Z,13.60
2018-11-14T13:09:52.385Z,13.59
2018-11-14T13:10:52.411Z,13.62
2018-11-14T13:11:53.743Z,13.59
2018-11-14T13:12:52.422Z,13.63
2018-11-14T13:13:52.434Z,13.63
2018-11-14T13:14:52.446Z,13.70
2018-11-14T13:15:52.459Z,13.71
2018-11-14T13:16:52.485Z,13.70
2018-11-14T13:17:52.483Z,13.78
2018-11-14T13:18:52.496Z,13.71
2018-11-14T13:19:52.510Z,13.77
2018-11-14T13:20:52.524Z,13.70
2018-11-14T13:21:52.534Z,13.75
2018-11-14T13:22:52.548Z,13.84
2018-11-14T13:23:52.559Z,13.75
2018-11-14T13:24:52.574Z,13.75
2018-11-14T13:25:52.582Z,13.78
2018-11-14T13:26:52.604Z,13.84
2018-11-14T13:27:52.617Z,13.85
2018-11-14T13:28:52.756Z,13.82
2018-11-14T13:29:52.637Z,13.81
2018-11-14T13:30:52.648Z,13.73
2018-11-14T13:31:52.662Z,13.73
2018-11-14T13:32:52.685Z,13.73
2018-11-14T13:33:52.735Z,13.73
2018-11-14T13:34:52.698Z,13.69
2018-11-14T13:35:52.712Z,13.71
2018-11-14T13:36:52.725Z,13.55
2018-11-14T13:37:52.740Z,13.62
2018-11-14T13:38:52.748Z,13.62
2018-11-14T13:39:52.763Z,13.64
2018-11-14T13:40:52.779Z,13.60
2018-11-14T13:41:52.787Z,13.59
2018-11-14T13:42:52.798Z,13.57
2018-11-14T13:43:52.816Z,13.60
2018-11-14T13:44:52.827Z,13.60
2018-11-14T13:45:52.839Z,13.63
2018-11-14T13:46:52.850Z,13.57
2018-11-14T13:47:52.864Z,13.54
2018-11-14T13:48:52.934Z,13.55
2018-11-14T13:49:53.014Z,13.59
2018-11-14T13:50:53.045Z,13.59
2018-11-14T13:51:52.917Z,13.57
2018-11-14T13:52:52.926Z,13.69
2018-11-14T13:53:52.938Z,13.57
2018-11-14T13:54:52.951Z,13.62
2018-11-14T13:55:52.962Z,13.64
2018-11-14T13:56:52.976Z,13.60
2018-11-14T13:57:52.995Z,13.55
2018-11-14T13:58:53.008Z,13.52
2018-11-14T13:59:53.020Z,13.51
2018-11-14T14:00:53.035Z,13.48
2018-11-14T14:01:53.188Z,13.49
2018-11-14T14:02:53.054Z,13.46
2018-11-14T14:03:53.064Z,13.51
2018-11-14T14:04:53.080Z,13.51
2018-11-14T14:05:53.093Z,13.52
2018-11-14T14:06:53.101Z,13.52
2018-11-14T14:07:53.114Z,13.45
2018-11-14T14:08:53.126Z,13.46
2018-11-14T14:09:53.159Z,13.51
2018-11-14T14:10:53.155Z,13.44
2018-11-14T14:11:53.162Z,13.41
2018-11-14T14:12:53.176Z,13.39
2018-11-14T14:13:53.198Z,13.42
2018-11-14T14:14:53.201Z,13.39
2018-11-14T14:15:53.213Z,13.41
2018-11-14T14:16:53.229Z,13.32
2018-11-14T14:17:53.241Z,13.30
2018-11-14T14:18:53.250Z,13.29
2018-11-14T14:19:53.264Z,13.30
2018-11-14T14:20:53.280Z,13.28
2018-11-14T14:21:53.292Z,13.29
2018-11-14T14:22:53.302Z,13.32
2018-11-14T14:23:53.315Z,13.23
2018-11-14T14:24:53.329Z,13.28
2018-11-14T14:25:53.339Z,13.25
2018-11-14T14:26:53.351Z,13.23
2018-11-14T14:27:53.366Z,13.17
2018-11-14T14:28:53.396Z,13.20
2018-11-14T14:29:53.396Z,13.22
2018-11-14T14:30:53.514Z,13.25
2018-11-14T14:31:53.416Z,13.19
2018-11-14T14:32:53.435Z,13.22
2018-11-14T14:33:53.440Z,13.23
2018-11-14T14:34:53.455Z,13.22
2018-11-14T14:35:53.468Z,13.23
2018-11-14T14:36:53.477Z,13.19
2018-11-14T14:37:53.493Z,13.19
2018-11-14T14:38:53.502Z,13.19
2018-11-14T14:39:53.521Z,13.14
2018-11-14T14:40:53.536Z,13.20
2018-11-14T14:41:53.541Z,13.10
2018-11-14T14:42:53.551Z,13.03
2018-11-14T14:43:53.565Z,13.03
2018-11-14T14:44:53.589Z,13.04
2018-11-14T14:45:53.589Z,12.97
2018-11-14T14:46:53.607Z,13.00
2018-11-14T14:47:53.624Z,12.92
2018-11-14T14:48:53.725Z,13.01
2018-11-14T14:49:53.641Z,13.04
2018-11-14T14:50:53.654Z,12.95
2018-11-14T14:51:53.664Z,13.00
2018-11-14T14:52:53.684Z,12.85
2018-11-14T14:53:53.695Z,12.92
2018-11-14T14:54:53.706Z,12.86
2018-11-14T14:55:53.715Z,12.86
2018-11-14T14:56:53.728Z,12.89
2018-11-14T14:57:53.742Z,12.92
2018-11-14T14:58:53.759Z,12.95
2018-11-14T14:59:53.770Z,12.82
2018-11-14T15:00:53.778Z,12.82
2018-11-14T15:01:53.795Z,12.78
2018-11-14T15:02:53.802Z,12.78
2018-11-14T15:03:53.815Z,12.83
2018-11-14T15:04:53.831Z,12.75
2018-11-14T15:05:53.843Z,12.78
2018-11-14T15:06:53.855Z,12.74
2018-11-14T15:07:53.864Z,12.74
2018-11-14T15:08:53.879Z,12.71
2018-11-14T15:09:53.892Z,12.64
2018-11-14T15:10:53.915Z,12.60
2018-11-14T15:11:53.924Z,12.60
2018-11-14T15:12:53.929Z,12.65
2018-11-14T15:13:53.938Z,12.54
2018-11-14T15:14:53.947Z,12.50
2018-11-14T15:15:53.964Z,12.52
2018-11-14T15:16:53.982Z,12.50
2018-11-14T15:17:53.987Z,12.39
2018-11-14T15:18:54.001Z,12.47
2018-11-14T15:19:54.015Z,12.42
2018-11-14T15:20:54.027Z,12.35
2018-11-14T15:21:54.079Z,12.34
2018-11-14T15:22:54.183Z,12.32
2018-11-14T15:23:54.069Z,12.28
2018-11-14T15:24:54.074Z,12.12
2018-11-14T15:25:54.085Z,12.17
2018-11-14T15:26:54.147Z,12.17
2018-11-14T15:27:54.115Z,12.14
2018-11-14T15:28:54.189Z,12.20
2018-11-14T15:29:54.154Z,12.21
2018-11-14T15:30:54.153Z,12.16
2018-11-14T15:31:54.158Z,12.13
2018-11-14T15:32:54.172Z,12.12
2018-11-14T15:33:54.233Z,12.05
2018-11-14T15:34:54.229Z,12.07
2018-11-14T15:35:54.272Z,12.10
2018-11-14T15:36:54.219Z,12.12
2018-11-14T15:37:54.239Z,11.98
2018-11-14T15:38:54.244Z,11.91
2018-11-14T15:39:54.257Z,11.94
2018-11-14T15:40:54.274Z,11.99
2018-11-14T15:41:54.280Z,11.86
2018-11-14T15:42:54.379Z,11.86
2018-11-14T15:43:54.309Z,11.82
2018-11-14T15:44:54.319Z,11.76
2018-11-14T15:45:54.332Z,11.76
2018-11-14T15:46:54.340Z,11.76
2018-11-14T15:47:54.356Z,11.70
2018-11-14T15:48:54.370Z,11.70
2018-11-14T15:49:54.378Z,11.70
2018-11-14T15:50:54.390Z,11.62
2018-11-14T15:51:54.407Z,11.60
2018-11-14T15:52:54.413Z,11.49
2018-11-14T15:53:54.457Z,11.58
2018-11-14T15:54:54.437Z,11.61
2018-11-14T15:55:54.450Z,11.57
2018-11-14T15:56:54.470Z,11.51
2018-11-14T15:57:54.534Z,11.57
2018-11-14T15:58:54.484Z,11.49
2018-11-14T15:59:54.499Z,11.52
2018-11-14T16:00:54.712Z,11.54
2018-11-14T16:01:54.525Z,11.44
2018-11-14T16:02:54.814Z,11.51
2018-11-14T16:03:54.546Z,11.36
2018-11-14T16:04:54.563Z,11.44
2018-11-14T16:05:54.568Z,11.39
2018-11-14T16:06:54.579Z,11.35
2018-11-14T16:07:54.591Z,11.32
2018-11-14T16:08:54.603Z,11.35
2018-11-14T16:09:54.614Z,11.35
2018-11-14T16:10:54.662Z,11.28
2018-11-14T16:11:54.643Z,11.28
2018-11-14T16:12:55.067Z,11.28
2018-11-14T16:13:54.665Z,11.28
2018-11-14T16:14:54.678Z,11.25
2018-11-14T16:15:54.689Z,11.21
2018-11-14T16:16:54.701Z,11.18
2018-11-14T16:17:54.717Z,11.25
2018-11-14T16:18:54.722Z,11.18
2018-11-14T16:19:54.733Z,11.09
2018-11-14T16:20:54.745Z,11.17
2018-11-14T16:21:54.763Z,11.11
2018-11-14T16:22:54.768Z,11.10
2018-11-14T16:23:54.779Z,11.07
2018-11-14T16:24:54.865Z,11.09
2018-11-14T16:25:54.808Z,11.00
2018-11-14T16:26:54.817Z,10.99
2018-11-14T16:27:54.858Z,10.94
2018-11-14T16:28:54.842Z,10.86
2018-11-14T16:29:54.854Z,10.91
2018-11-14T16:30:54.887Z,10.79
2018-11-14T16:31:54.884Z,10.84
2018-11-14T16:32:54.885Z,10.76
2018-11-14T16:33:54.899Z,10.81
2018-11-14T16:34:54.922Z,10.73
2018-11-14T16:35:54.928Z,10.70
2018-11-14T16:36:54.935Z,10.71
2018-11-14T16:37:55.003Z,10.76
2018-11-14T16:38:54.990Z,10.71
2018-11-14T16:39:54.972Z,10.68
2018-11-14T16:40:54.990Z,10.73
2018-11-14T16:41:54.996Z,10.67
2018-11-14T16:42:55.046Z,10.66
2018-11-14T16:43:55.015Z,10.67
2018-11-14T16:44:55.047Z,10.66
2018-11-14T16:45:55.051Z,10.60
2018-11-14T16:46:55.050Z,10.61
2018-11-14T16:47:55.064Z,10.64
2018-11-14T16:48:55.075Z,10.55
2018-11-14T16:49:55.129Z,10.64
2018-11-14T16:50:55.097Z,10.59
2018-11-14T16:51:55.115Z,10.53
2018-11-14T16:52:55.119Z,10.53
2018-11-14T16:53:55.134Z,10.66
2018-11-14T16:54:55.144Z,10.60
2018-11-14T16:55:55.159Z,10.56
2018-11-14T16:56:55.175Z,10.61
2018-11-14T16:57:55.179Z,10.59
2018-11-14T16:58:55.200Z,10.51
2018-11-14T16:59:55.200Z,10.47
2018-11-14T17:00:55.216Z,10.56
2018-11-14T17:01:55.224Z,10.52
2018-11-14T17:02:55.239Z,10.48
2018-11-14T17:03:55.258Z,10.53
2018-11-14T17:04:55.267Z,10.47
2018-11-14T17:05:55.270Z,10.48
2018-11-14T17:06:55.282Z,10.45
2018-11-14T17:07:55.293Z,10.48
2018-11-14T17:08:55.305Z,10.38
2018-11-14T17:09:55.317Z,10.40
2018-11-14T17:10:55.341Z,10.36
2018-11-14T17:11:55.359Z,10.40
2018-11-14T17:12:55.366Z,10.40
2018-11-14T17:13:55.363Z,10.36
2018-11-14T17:14:55.460Z,10.34
2018-11-14T17:15:55.387Z,10.36
2018-11-14T17:16:55.397Z,10.26
2018-11-14T17:17:55.409Z,10.27
2018-11-14T17:18:55.423Z,10.27
2018-11-14T17:19:55.438Z,10.23
2018-11-14T17:20:55.446Z,10.25
2018-11-14T17:21:55.456Z,10.26
2018-11-14T17:22:55.463Z,10.22
2018-11-14T17:23:55.485Z,10.20
2018-11-14T17:24:55.489Z,10.15
2018-11-14T17:25:55.524Z,10.20
2018-11-14T17:26:55.510Z,10.20
2018-11-14T17:27:55.568Z,10.15
2018-11-14T17:28:55.545Z,10.14
2018-11-14T17:29:55.543Z,10.22
2018-11-14T17:30:55.571Z,10.14
2018-11-14T17:31:55.572Z,10.17
2018-11-14T17:32:55.579Z,10.18
2018-11-14T17:33:55.597Z,10.11
2018-11-14T17:34:55.605Z,10.08
2018-11-14T17:35:55.657Z,10.12
2018-11-14T17:36:55.621Z,10.04
2018-11-14T17:37:55.634Z,10.01
2018-11-14T17:38:55.653Z,9.99
2018-11-14T17:39:55.661Z,9.99
2018-11-14T17:40:55.677Z,9.99
2018-11-14T17:41:55.817Z,10.07
2018-11-14T17:42:55.712Z,10.07
2018-11-14T17:43:55.703Z,10.08
2018-11-14T17:44:55.719Z,9.97
2018-11-14T17:45:55.745Z,9.91
2018-11-14T17:46:55.748Z,9.91
2018-11-14T17:47:55.749Z,10.01
2018-11-14T17:48:55.761Z,9.89
2018-11-14T17:49:55.782Z,10.01
2018-11-14T17:50:55.842Z,10.02
2018-11-14T17:51:55.796Z,9.90
2018-11-14T17:52:55.806Z,9.97
2018-11-14T17:53:55.816Z,9.94
2018-11-14T17:54:55.827Z,9.87
2018-11-14T17:55:55.840Z,9.90
2018-11-14T17:56:55.853Z,9.91
2018-11-14T17:57:55.875Z,9.91
2018-11-14T17:58:55.872Z,9.87
2018-11-14T17:59:55.885Z,9.79
2018-11-14T18:00:55.945Z,9.75
2018-11-14T18:01:55.905Z,9.78
2018-11-14T18:02:55.952Z,9.81
2018-11-14T18:03:55.927Z,9.76
2018-11-14T18:04:55.939Z,9.78
2018-11-14T18:05:55.956Z,9.83
2018-11-14T18:06:55.965Z,9.78
2018-11-14T18:07:55.973Z,9.75
2018-11-14T18:08:55.985Z,9.78
2018-11-14T18:09:55.999Z,9.78
2018-11-14T18:10:56.008Z,9.81
2018-11-14T18:11:56.019Z,9.83
2018-11-14T18:12:56.034Z,9.74
2018-11-14T18:13:56.042Z,9.72
2018-11-14T18:14:56.056Z,9.71
2018-11-14T18:15:56.064Z,9.64
2018-11-14T18:16:56.088Z,9.65
2018-11-14T18:17:56.092Z,9.53
2018-11-14T18:18:56.099Z,9.58
2018-11-14T18:19:56.126Z,9.56
2018-11-14T18:20:56.122Z,9.57
2018-11-14T18:21:56.133Z,9.58
2018-11-14T18:22:56.140Z,9.51
2018-11-14T18:23:56.155Z,9.60
2018-11-14T18:24:56.168Z,9.64
2018-11-14T18:25:56.174Z,9.57
2018-11-14T18:26:56.185Z,9.56
2018-11-14T18:27:56.198Z,9.56
2018-11-14T18:28:56.208Z,9.57
2018-11-14T18:29:56.246Z,9.56
2018-11-14T18:30:56.241Z,9.53
2018-11-14T18:31:56.240Z,9.56
2018-11-14T18:32:56.253Z,9.54
2018-11-14T18:33:56.263Z,9.56
2018-11-14T18:34:56.277Z,9.65
2018-11-14T18:35:56.289Z,9.46
2018-11-14T18:36:56.315Z,9.48
2018-11-14T18:37:56.306Z,9.56
2018-11-14T18:38:56.420Z,9.57
2018-11-14T18:39:56.330Z,9.54
2018-11-14T18:40:56.346Z,9.54
2018-11-14T18:41:56.355Z,9.57
2018-11-14T18:42:56.365Z,9.51
2018-11-14T18:43:56.377Z,9.61
2018-11-14T18:44:56.429Z,9.53
2018-11-14T18:45:56.496Z,9.53
2018-11-14T18:46:56.410Z,9.51
2018-11-14T18:47:56.420Z,9.51
2018-11-14T18:48:56.457Z,9.54
2018-11-14T18:49:56.485Z,9.54
2018-11-14T18:50:56.531Z,9.48
2018-11-14T18:51:56.465Z,9.57
2018-11-14T18:52:56.475Z,9.46
2018-11-14T18:53:56.496Z,9.46
2018-11-14T18:54:56.499Z,9.48
2018-11-14T18:55:56.512Z,9.46
2018-11-14T18:56:56.517Z,9.46
2018-11-14T18:57:56.610Z,9.43
2018-11-14T18:58:56.537Z,9.42
2018-11-14T18:59:56.556Z,9.42
2018-11-14T19:00:56.560Z,9.46
2018-11-14T19:01:56.636Z,9.54
2018-11-14T19:02:56.584Z,9.42
2018-11-14T19:03:56.600Z,9.40
2018-11-14T19:04:56.605Z,9.40
2018-11-14T19:05:56.628Z,9.36
2018-11-14T19:06:56.713Z,9.39
2018-11-14T19:07:56.638Z,9.38
2018-11-14T19:08:56.654Z,9.31
2018-11-14T19:09:56.661Z,9.32
2018-11-14T19:10:56.673Z,9.39
2018-11-14T19:11:56.686Z,9.32
2018-11-14T19:12:56.756Z,9.36
2018-11-14T19:13:56.713Z,9.29
2018-11-14T19:14:56.714Z,9.26
2018-11-14T19:15:56.729Z,9.29
2018-11-14T19:16:56.738Z,9.18
2018-11-14T19:17:56.752Z,9.21
2018-11-14T19:18:56.803Z,9.24
2018-11-14T19:19:56.769Z,9.21
2018-11-14T19:20:56.785Z,9.21
2018-11-14T19:21:56.843Z,9.18
2018-11-14T19:22:56.808Z,9.17
2018-11-14T19:23:56.814Z,9.21
2018-11-14T19:24:56.825Z,9.14
2018-11-14T19:25:56.845Z,9.13
2018-11-14T19:26:56.850Z,9.26
2018-11-14T19:27:56.860Z,9.24
2018-11-14T19:28:56.870Z,9.20
2018-11-14T19:29:56.896Z,9.28
2018-11-14T19:30:56.896Z,9.31
2018-11-14T19:31:56.958Z,9.23
2018-11-14T19:32:56.918Z,9.20
2018-11-14T19:33:56.927Z,9.05
2018-11-14T19:34:56.945Z,9.08
2018-11-14T19:35:56.953Z,9.10
2018-11-14T19:36:56.955Z,9.05
2018-11-14T19:37:56.979Z,9.11
2018-11-14T19:38:56.980Z,9.08
2018-11-14T19:39:57.011Z,9.08
2018-11-14T19:40:57.049Z,8.98
2018-11-14T19:41:57.014Z,9.05
2018-11-14T19:42:57.043Z,8.91
2018-11-14T19:43:57.043Z,8.96
2018-11-14T19:44:57.044Z,8.94
2018-11-14T19:45:57.061Z,8.95
2018-11-14T19:46:57.269Z,8.95
2018-11-14T19:47:57.089Z,8.95
2018-11-14T19:48:57.088Z,8.98
2018-11-14T19:49:57.096Z,8.95
2018-11-14T19:50:57.133Z,8.84
2018-11-14T19:51:57.174Z,8.89
2018-11-14T19:52:57.131Z,8.86
2018-11-14T19:53:57.135Z,8.71
2018-11-14T19:54:57.143Z,8.77
2018-11-14T19:55:57.200Z,8.68
2018-11-14T19:56:57.164Z,8.71
2018-11-14T19:57:57.174Z,8.68
2018-11-14T19:58:57.185Z,8.66
2018-11-14T19:59:57.201Z,8.77
2018-11-14T20:00:57.206Z,8.74
2018-11-14T20:01:57.329Z,8.70
2018-11-14T20:02:57.233Z,8.61
2018-11-14T20:03:57.256Z,8.58
2018-11-14T20:04:57.255Z,8.55
2018-11-14T20:05:57.260Z,8.48
2018-11-14T20:06:57.283Z,8.58
2018-11-14T20:07:57.281Z,8.58
2018-11-14T20:08:57.296Z,8.50
2018-11-14T20:09:57.304Z,8.50
2018-11-14T20:10:57.315Z,8.55
2018-11-14T20:11:57.323Z,8.56
2018-11-14T20:12:57.335Z,8.48
2018-11-14T20:13:57.345Z,8.55
2018-11-14T20:14:57.358Z,8.50
2018-11-14T20:15:57.369Z,8.50
2018-11-14T20:16:57.377Z,8.45
2018-11-14T20:17:57.386Z,8.38
2018-11-14T20:18:57.400Z,8.37
2018-11-14T20:19:57.414Z,8.36
2018-11-14T20:20:57.430Z,8.33
2018-11-14T20:21:57.430Z,8.33
2018-11-14T20:22:57.440Z,8.38
2018-11-14T20:23:57.501Z,8.40
2018-11-14T20:24:57.464Z,8.30
2018-11-14T20:25:57.513Z,8.36
2018-11-14T20:26:57.482Z,8.34
2018-11-14T20:27:57.497Z,8.29
2018-11-14T20:28:57.506Z,8.29
2018-11-14T20:29:57.518Z,8.30
2018-11-14T20:30:57.525Z,8.29
2018-11-14T20:31:57.558Z,8.34
2018-11-14T20:32:57.545Z,8.26
2018-11-14T20:33:57.572Z,8.23
2018-11-14T20:34:57.570Z,8.29
2018-11-14T20:35:57.576Z,8.26
2018-11-14T20:36:57.588Z,8.25
2018-11-14T20:37:57.595Z,8.25
2018-11-14T20:38:57.643Z,8.20
2018-11-14T20:39:57.620Z,8.22
2018-11-14T20:40:57.628Z,8.25
2018-11-14T20:41:57.640Z,8.16
2018-11-14T20:42:57.716Z,8.20
2018-11-14T20:43:57.660Z,8.07
2018-11-14T20:44:57.669Z,8.18
2018-11-14T20:45:57.685Z,8.15
2018-11-14T20:46:57.694Z,8.10
2018-11-14T20:47:57.700Z,8.20
2018-11-14T20:48:57.757Z,8.18
2018-11-14T20:49:57.721Z,8.19
2018-11-14T20:50:57.735Z,8.20
2018-11-14T20:51:57.743Z,8.15
2018-11-14T20:52:57.752Z,8.11
2018-11-14T20:53:57.917Z,8.18
2018-11-14T20:54:57.802Z,8.15
2018-11-14T20:55:57.785Z,8.12
2018-11-14T20:56:57.805Z,8.08
2018-11-14T20:57:57.807Z,8.11
2018-11-14T20:58:57.813Z,8.08
2018-11-14T20:59:57.826Z,8.08
2018-11-14T21:00:57.837Z,8.07
2018-11-14T21:01:57.846Z,8.05
2018-11-14T21:02:57.859Z,8.16
2018-11-14T21:03:57.866Z,8.16
2018-11-14T21:04:57.877Z,8.11
2018-11-14T21:05:57.885Z,8.04
2018-11-14T21:06:57.896Z,8.07
2018-11-14T21:07:57.908Z,7.98
2018-11-14T21:08:57.919Z,8.01
2018-11-14T21:09:57.935Z,8.08
2018-11-14T21:10:57.941Z,8.07
2018-11-14T21:11:57.951Z,8.11
2018-11-14T21:12:57.963Z,8.10
2018-11-14T21:13:57.983Z,7.98
2018-11-14T21:14:57.980Z,8.07
2018-11-14T21:15:57.990Z,8.08
2018-11-14T21:16:58.000Z,8.05
2018-11-14T21:17:58.009Z,8.01
2018-11-14T21:18:58.021Z,8.04
2018-11-14T21:19:58.031Z,8.04
2018-11-14T21:20:58.042Z,8.02
2018-11-14T21:21:58.054Z,8.04
2018-11-14T21:22:58.079Z,8.04
2018-11-14T21:23:58.089Z,8.00
2018-11-14T21:24:58.137Z,7.95
2018-11-14T21:25:58.093Z,7.98
2018-11-14T21:26:58.120Z,7.98
2018-11-14T21:27:58.132Z,7.98
2018-11-14T21:28:58.124Z,7.97
2018-11-14T21:29:58.134Z,7.92
2018-11-14T21:30:58.147Z,7.93
2018-11-14T21:31:58.157Z,7.92